createdAt,value
2024-02-03T00:00:35.322Z,100.00
2024-02-03T00:03:23.640Z,100.00
2024-02-03T00:05:51.920Z,100.00
2024-02-03T00:08:20.447Z,100.00
2024-02-03T00:10:48.691Z,100.00
2024-02-03T00:13:16.795Z,100.00
2024-02-03T00:15:45.030Z,100.00
2024-02-03T00:18:13.413Z,100.00
2024-02-03T00:20:41.638Z,100.00
2024-02-03T00:23:09.710Z,100.00
2024-02-03T00:25:37.999Z,100.00
2024-02-03T00:28:06.450Z,100.00
2024-02-03T00:30:34.617Z,100.00
2024-02-03T00:33:03.164Z,100.00
2024-02-03T00:35:31.289Z,100.00
2024-02-03T00:37:59.364Z,100.00
2024-02-03T00:40:27.543Z,100.00
2024-02-03T00:42:56.919Z,100.00
2024-02-03T00:45:25.149Z,100.00
2024-02-03T00:47:53.335Z,100.00
2024-02-03T00:50:21.544Z,100.00
2024-02-03T00:52:49.837Z,100.00
2024-02-03T00:55:18.553Z,100.00
2024-02-03T00:57:46.772Z,100.00
2024-02-03T01:00:15.885Z,100.00
2024-02-03T01:02:44.320Z,100.00
2024-02-03T01:05:12.885Z,100.00
2024-02-03T01:07:41.268Z,100.00
2024-02-03T01:10:09.774Z,100.00
2024-02-03T01:12:38.033Z,100.00
2024-02-03T01:15:06.586Z,100.00
2024-02-03T01:17:34.798Z,100.00
2024-02-03T01:20:03.640Z,100.00
2024-02-03T01:22:31.777Z,100.00
2024-02-03T01:25:00.301Z,100.00
2024-02-03T01:27:28.822Z,100.00
2024-02-03T01:29:57.593Z,100.00
2024-02-03T01:32:25.725Z,100.00
2024-02-03T01:34:55.310Z,100.00
2024-02-03T01:37:23.760Z,100.00
2024-02-03T01:39:51.937Z,100.00
2024-02-03T01:42:20.334Z,100.00
2024-02-03T01:44:48.449Z,100.00
2024-02-03T01:47:18.031Z,100.00
2024-02-03T01:49:46.705Z,100.00
2024-02-03T01:52:16.945Z,100.00
2024-02-03T01:54:46.552Z,100.00
2024-02-03T01:57:16.116Z,100.00
2024-02-03T01:59:44.587Z,100.00
2024-02-03T02:02:13.727Z,100.00
2024-02-03T02:04:41.944Z,100.00
2024-02-03T02:07:09.991Z,100.00
2024-02-03T02:09:38.078Z,100.00
2024-02-03T02:12:06.397Z,100.00
2024-02-03T02:14:34.452Z,100.00
2024-02-03T02:17:02.471Z,100.00
2024-02-03T02:19:33.653Z,100.00
2024-02-03T02:22:01.879Z,100.00
2024-02-03T02:24:29.964Z,100.00
2024-02-03T02:26:58.021Z,100.00
2024-02-03T02:29:26.169Z,100.00
2024-02-03T02:31:54.295Z,100.00
2024-02-03T02:34:22.812Z,100.00
2024-02-03T02:36:51.059Z,100.00
2024-02-03T02:39:20.549Z,100.00
2024-02-03T02:41:48.736Z,100.00
2024-02-03T02:44:16.838Z,100.00
2024-02-03T02:46:44.862Z,100.00
2024-02-03T02:49:13.500Z,100.00
2024-02-03T02:51:41.752Z,100.00
2024-02-03T02:54:09.998Z,100.00
2024-02-03T02:56:38.277Z,100.00
2024-02-03T02:59:07.305Z,100.00
2024-02-03T03:01:35.373Z,100.00
2024-02-03T03:04:04.189Z,100.00
2024-02-03T03:06:32.546Z,100.00
2024-02-03T03:09:00.910Z,100.00
2024-02-03T03:11:29.100Z,100.00
2024-02-03T03:13:57.790Z,100.00
2024-02-03T03:16:25.957Z,100.00
2024-02-03T03:18:54.308Z,100.00
2024-02-03T03:21:22.530Z,100.00
2024-02-03T03:23:50.963Z,100.00
2024-02-03T03:26:18.993Z,100.00
2024-02-03T03:28:47.165Z,100.00
2024-02-03T03:31:15.340Z,100.00
2024-02-03T03:33:43.480Z,100.00
2024-02-03T03:36:12.396Z,100.00
2024-02-03T03:38:44.099Z,100.00
2024-02-03T03:41:12.858Z,100.00
2024-02-03T03:43:40.911Z,100.00
2024-02-03T03:46:09.569Z,100.00
2024-02-03T03:48:38.193Z,100.00
2024-02-03T03:51:06.368Z,100.00
2024-02-03T03:53:35.193Z,100.00
2024-02-03T03:56:04.401Z,100.00
2024-02-03T03:58:32.660Z,100.00
2024-02-03T04:01:01.263Z,100.00
2024-02-03T04:03:29.818Z,100.00
2024-02-03T04:05:58.145Z,100.00
2024-02-03T04:08:26.392Z,100.00
2024-02-03T04:10:54.604Z,100.00
2024-02-03T04:13:22.637Z,100.00
2024-02-03T04:15:50.975Z,100.00
2024-02-03T04:18:19.290Z,100.00
2024-02-03T04:20:47.583Z,100.00
2024-02-03T04:23:15.675Z,100.00
2024-02-03T04:25:43.964Z,100.00
2024-02-03T04:28:12.063Z,100.00
2024-02-03T04:30:40.278Z,100.00
2024-02-03T04:33:08.589Z,100.00
2024-02-03T04:35:37.332Z,100.00
2024-02-03T04:38:05.658Z,100.00
2024-02-03T04:40:34.073Z,100.00
2024-02-03T04:43:02.943Z,100.00
2024-02-03T04:45:31.067Z,100.00
2024-02-03T04:47:59.331Z,100.00
2024-02-03T04:50:29.209Z,100.00
2024-02-03T04:52:57.291Z,100.00
2024-02-03T04:55:25.390Z,100.00
2024-02-03T04:57:53.541Z,100.00
2024-02-03T05:00:21.679Z,100.00
2024-02-03T05:02:49.817Z,100.00
2024-02-03T05:05:17.992Z,100.00
2024-02-03T05:07:47.741Z,100.00
2024-02-03T05:10:16.069Z,100.00
2024-02-03T05:12:44.209Z,100.00
2024-02-03T05:15:12.324Z,100.00
2024-02-03T05:17:40.705Z,100.00
2024-02-03T05:20:12.369Z,100.00
2024-02-03T05:22:41.536Z,100.00
2024-02-03T05:25:12.213Z,100.00
2024-02-03T05:27:40.514Z,100.00
2024-02-03T05:30:09.760Z,100.00
2024-02-03T05:32:38.283Z,100.00
2024-02-03T05:35:06.616Z,100.00
2024-02-03T05:37:37.022Z,100.00
2024-02-03T05:40:05.896Z,100.00
2024-02-03T05:42:34.279Z,100.00
2024-02-03T05:45:02.446Z,100.00
2024-02-03T05:47:30.572Z,100.00
2024-02-03T05:49:58.726Z,100.00
2024-02-03T05:52:27.007Z,100.00
2024-02-03T05:54:55.323Z,100.00
2024-02-03T05:57:23.628Z,100.00
2024-02-03T05:59:52.369Z,100.00
2024-02-03T06:02:20.610Z,100.00
2024-02-03T06:04:49.147Z,100.00
2024-02-03T06:07:18.379Z,100.00
2024-02-03T06:09:47.198Z,100.00
2024-02-03T06:12:15.526Z,100.00
2024-02-03T06:14:45.492Z,100.00
2024-02-03T06:17:14.405Z,100.00
2024-02-03T06:19:44.378Z,100.00
2024-02-03T06:22:13.350Z,100.00
2024-02-03T06:24:42.923Z,100.00
2024-02-03T06:27:11.562Z,100.00
2024-02-03T06:29:39.867Z,100.00
2024-02-03T06:32:09.441Z,100.00
2024-02-03T06:34:38.256Z,100.00
2024-02-03T06:37:06.423Z,100.00
2024-02-03T06:39:34.752Z,100.00
2024-02-03T06:42:03.321Z,100.00
2024-02-03T06:44:31.331Z,100.00
2024-02-03T06:46:59.579Z,100.00
2024-02-03T06:49:27.993Z,100.00
2024-02-03T06:51:57.380Z,100.00
2024-02-03T06:54:25.598Z,100.00
2024-02-03T06:56:53.733Z,100.00
2024-02-03T06:59:21.914Z,100.00
2024-02-03T07:01:51.714Z,100.00
2024-02-03T07:04:20.096Z,100.00
2024-02-03T07:06:48.451Z,100.00
2024-02-03T07:09:16.819Z,100.00
2024-02-03T07:11:56.586Z,100.00
2024-02-03T07:14:31.652Z,100.00
2024-02-03T07:16:59.755Z,100.00
2024-02-03T07:19:29.207Z,100.00
2024-02-03T07:21:57.434Z,100.00
2024-02-03T07:24:25.538Z,100.00
2024-02-03T07:26:53.614Z,100.00
2024-02-03T07:29:21.787Z,100.00
2024-02-03T07:31:49.982Z,100.00
2024-02-03T07:34:18.279Z,100.00
2024-02-03T07:36:46.778Z,100.00
2024-02-03T07:39:15.907Z,100.00
2024-02-03T07:41:46.132Z,100.00
2024-02-03T07:44:16.643Z,100.00
2024-02-03T07:46:44.915Z,100.00
2024-02-03T07:49:13.242Z,100.00
2024-02-03T07:51:41.473Z,100.00
2024-02-03T07:54:09.731Z,100.00
2024-02-03T07:56:37.959Z,100.00
2024-02-03T07:59:06.461Z,100.00
2024-02-03T08:01:34.686Z,100.00
2024-02-03T08:04:03.321Z,100.00
2024-02-03T08:06:31.752Z,100.00
2024-02-03T08:08:59.908Z,100.00
2024-02-03T08:11:28.081Z,100.00
2024-02-03T08:13:56.241Z,100.00
2024-02-03T08:16:24.361Z,100.00
2024-02-03T08:18:52.729Z,100.00
2024-02-03T08:21:20.951Z,100.00
2024-02-03T08:23:49.176Z,100.00
2024-02-03T08:26:18.767Z,100.00
2024-02-03T08:28:49.083Z,100.00
2024-02-03T08:31:19.762Z,100.00
2024-02-03T08:33:48.414Z,100.00
2024-02-03T08:36:16.811Z,100.00
2024-02-03T08:38:45.100Z,100.00
2024-02-03T08:41:15.843Z,100.00
2024-02-03T08:43:45.007Z,100.00
2024-02-03T08:46:13.503Z,100.00
2024-02-03T08:48:41.794Z,100.00
2024-02-03T08:51:10.176Z,100.00
2024-02-03T08:53:38.529Z,100.00
2024-02-03T08:56:10.000Z,100.00
2024-02-03T08:58:40.537Z,100.00
2024-02-03T09:01:08.755Z,100.00
2024-02-03T09:03:37.251Z,100.00
2024-02-03T09:06:06.290Z,100.00
2024-02-03T09:08:34.399Z,100.00
2024-02-03T09:11:02.721Z,100.00
2024-02-03T09:13:30.805Z,100.00
2024-02-03T09:15:58.926Z,100.00
2024-02-03T09:18:27.382Z,100.00
2024-02-03T09:20:55.471Z,100.00
2024-02-03T09:23:23.599Z,100.00
2024-02-03T09:25:53.100Z,100.00
2024-02-03T09:28:21.142Z,100.00
2024-02-03T09:30:50.061Z,100.00
2024-02-03T09:33:18.399Z,100.00
2024-02-03T09:35:47.675Z,100.00
2024-02-03T09:38:15.968Z,100.00
2024-02-03T09:40:44.245Z,100.00
2024-02-03T09:43:12.588Z,100.00
2024-02-03T09:45:41.390Z,100.00
2024-02-03T09:48:09.639Z,100.00
2024-02-03T09:50:40.992Z,100.00
2024-02-03T09:53:11.319Z,100.00
2024-02-03T09:55:39.722Z,100.00
2024-02-03T09:58:08.731Z,100.00
2024-02-03T10:00:37.466Z,100.00
2024-02-03T10:03:16.022Z,100.00
2024-02-03T10:05:44.313Z,100.00
2024-02-03T10:08:13.034Z,100.00
2024-02-03T10:13:17.175Z,100.00
2024-02-03T10:15:45.420Z,100.00
2024-02-03T10:18:14.565Z,100.00
2024-02-03T10:20:42.804Z,100.00
2024-02-03T10:23:11.432Z,100.00
2024-02-03T10:25:40.200Z,100.00
2024-02-03T10:28:09.452Z,100.00
2024-02-03T10:30:38.997Z,100.00
2024-02-03T10:33:08.123Z,100.00
2024-02-03T10:35:37.667Z,100.00
2024-02-03T10:38:05.940Z,100.00
2024-02-03T10:40:35.403Z,100.00
2024-02-03T10:43:08.213Z,100.00
2024-02-03T10:45:39.446Z,100.00
2024-02-03T10:48:11.484Z,100.00
2024-02-03T10:50:44.810Z,100.00
2024-02-03T10:53:19.213Z,100.00
2024-02-03T10:55:56.647Z,100.00
2024-02-03T10:58:27.417Z,100.00
2024-02-03T11:00:57.880Z,100.00
2024-02-03T11:03:31.185Z,100.00
2024-02-03T11:05:59.634Z,100.00
2024-02-03T11:08:35.399Z,100.00
2024-02-03T11:11:03.833Z,100.00
2024-02-03T11:13:39.478Z,100.00
2024-02-03T11:16:07.935Z,100.00
2024-02-03T11:18:41.454Z,100.00
2024-02-03T11:21:10.158Z,100.00
2024-02-03T11:23:38.378Z,100.00
2024-02-03T11:26:06.828Z,100.00
2024-02-03T11:28:35.608Z,100.00
2024-02-03T11:31:08.068Z,100.00
2024-02-03T11:33:49.620Z,100.00
2024-02-03T11:36:18.859Z,100.00
2024-02-03T11:38:48.210Z,100.00
2024-02-03T11:41:17.516Z,99.85
2024-02-03T11:43:48.535Z,99.98
2024-02-03T11:46:16.600Z,100.00
2024-02-03T11:48:47.338Z,100.00
2024-02-03T11:51:16.598Z,100.00
2024-02-03T11:53:44.993Z,100.00
2024-02-03T11:56:13.455Z,100.00
2024-02-03T11:58:42.937Z,100.00
2024-02-03T12:01:14.572Z,100.00
2024-02-03T12:03:43.142Z,100.00
2024-02-03T12:06:11.819Z,100.00
2024-02-03T12:08:40.335Z,100.00
2024-02-03T12:11:10.829Z,100.00
2024-02-03T12:13:43.237Z,100.00
2024-02-03T12:16:12.388Z,100.00
2024-02-03T12:18:40.939Z,100.00
2024-02-03T12:21:09.165Z,100.00
2024-02-03T12:23:39.282Z,100.00
2024-02-03T12:26:07.685Z,100.00
2024-02-03T12:28:36.170Z,100.00
2024-02-03T12:31:04.762Z,100.00
2024-02-03T12:33:33.812Z,100.00
2024-02-03T12:36:02.646Z,100.00
2024-02-03T12:38:31.137Z,100.00
2024-02-03T12:40:59.303Z,100.00
2024-02-03T12:43:27.542Z,100.00
2024-02-03T12:45:55.822Z,100.00
2024-02-03T12:48:24.819Z,100.00
2024-02-03T12:50:53.467Z,99.86
2024-02-03T12:53:21.934Z,100.00
2024-02-03T12:55:50.939Z,100.00
2024-02-03T12:58:19.283Z,99.85
2024-02-03T13:00:47.852Z,99.30
2024-02-03T13:03:16.188Z,98.52
2024-02-03T13:05:48.831Z,98.07
2024-02-03T13:08:17.634Z,96.65
2024-02-03T13:10:46.227Z,96.58
2024-02-03T13:13:14.340Z,95.45
2024-02-03T13:15:42.807Z,94.14
2024-02-03T13:18:11.368Z,94.93
2024-02-03T13:20:40.879Z,95.19
2024-02-03T13:23:09.118Z,95.07
2024-02-03T13:25:37.190Z,95.55
2024-02-03T13:28:07.186Z,94.26
2024-02-03T13:30:35.477Z,93.11
2024-02-03T13:33:04.164Z,93.09
2024-02-03T13:35:32.494Z,93.19
2024-02-03T13:38:00.775Z,91.87
2024-02-03T13:40:28.781Z,92.49
2024-02-03T13:42:57.063Z,92.94
2024-02-03T13:45:25.420Z,92.48
2024-02-03T13:47:53.531Z,91.80
2024-02-03T13:50:21.710Z,91.05
2024-02-03T13:52:49.808Z,91.54
2024-02-03T13:55:18.132Z,92.05
2024-02-03T13:57:46.455Z,92.68
2024-02-03T14:00:15.856Z,92.26
2024-02-03T14:02:44.125Z,91.66
2024-02-03T14:05:12.480Z,90.94
2024-02-03T14:07:40.651Z,90.37
2024-02-03T14:10:09.038Z,89.44
2024-02-03T14:12:37.139Z,89.91
2024-02-03T14:15:07.036Z,88.92
2024-02-03T14:17:35.447Z,89.06
2024-02-03T14:20:05.179Z,89.21
2024-02-03T14:22:33.282Z,89.57
2024-02-03T14:25:01.383Z,89.83
2024-02-03T14:27:32.096Z,89.51
2024-02-03T14:30:00.951Z,89.46
2024-02-03T14:32:29.113Z,89.84
2024-02-03T14:34:57.453Z,89.06
2024-02-03T14:37:27.914Z,88.83
2024-02-03T14:39:56.409Z,89.03
2024-02-03T14:42:24.918Z,88.83
2024-02-03T14:44:53.146Z,88.73
2024-02-03T14:47:21.612Z,89.08
2024-02-03T14:49:49.961Z,88.68
2024-02-03T14:52:18.374Z,88.95
2024-02-03T14:54:46.553Z,89.08
2024-02-03T14:57:14.926Z,88.59
2024-02-03T14:59:43.252Z,88.56
2024-02-03T15:02:11.533Z,88.58
2024-02-03T15:04:39.784Z,88.56
2024-02-03T15:07:08.970Z,88.07
2024-02-03T15:09:37.472Z,87.77
2024-02-03T15:12:06.062Z,87.92
2024-02-03T15:14:34.301Z,87.96
2024-02-03T15:17:02.616Z,87.82
2024-02-03T15:19:31.021Z,88.24
2024-02-03T15:21:59.198Z,88.88
2024-02-03T15:24:27.585Z,88.74
2024-02-03T15:26:58.482Z,89.05
2024-02-03T15:29:27.781Z,88.99
2024-02-03T15:31:56.798Z,88.98
2024-02-03T15:34:25.361Z,89.30
2024-02-03T15:36:58.091Z,89.12
2024-02-03T15:39:26.373Z,89.24
2024-02-03T15:41:54.594Z,89.29
2024-02-03T15:44:32.891Z,89.19
2024-02-03T15:47:06.921Z,88.98
2024-02-03T15:49:35.717Z,88.89
2024-02-03T15:52:04.622Z,88.66
2024-02-03T15:54:32.860Z,88.10
2024-02-03T15:57:01.282Z,88.43
2024-02-03T15:59:29.613Z,88.22
2024-02-03T16:01:57.845Z,87.51
2024-02-03T16:04:26.304Z,86.91
2024-02-03T16:06:54.844Z,86.13
2024-02-03T16:09:23.114Z,85.26
2024-02-03T16:11:51.714Z,84.78
2024-02-03T16:14:20.192Z,83.71
2024-02-03T16:16:48.254Z,83.97
2024-02-03T16:19:16.491Z,84.16
2024-02-03T16:21:45.262Z,83.64
2024-02-03T16:24:13.399Z,83.14
2024-02-03T16:26:42.188Z,83.53
2024-02-03T16:29:10.809Z,83.11
2024-02-03T16:31:39.116Z,82.98
2024-02-03T16:34:07.527Z,82.92
2024-02-03T16:36:37.040Z,83.04
2024-02-03T16:39:07.022Z,83.35
2024-02-03T16:41:35.129Z,83.44
2024-02-03T16:44:03.661Z,83.69
2024-02-03T16:46:31.767Z,83.51
2024-02-03T16:49:00.945Z,83.35
2024-02-03T16:51:30.396Z,83.21
2024-02-03T16:53:58.568Z,83.50
2024-02-03T16:56:27.228Z,83.52
2024-02-03T16:58:55.385Z,83.53
2024-02-03T17:01:23.774Z,83.70
2024-02-03T17:03:52.598Z,83.77
2024-02-03T17:06:30.699Z,83.67
2024-02-03T17:08:58.931Z,83.37
2024-02-03T17:11:27.429Z,82.97
2024-02-03T17:13:55.747Z,83.19
2024-02-03T17:16:24.716Z,83.26
2024-02-03T17:18:52.992Z,83.23
2024-02-03T17:21:21.659Z,83.67
2024-02-03T17:23:53.536Z,83.58
2024-02-03T17:26:21.876Z,83.55
2024-02-03T17:28:49.909Z,83.66
2024-02-03T17:31:18.546Z,83.69
2024-02-03T17:33:47.072Z,83.25
2024-02-03T17:36:15.186Z,83.29
2024-02-03T17:38:43.949Z,83.44
2024-02-03T17:41:11.952Z,83.46
2024-02-03T17:43:40.242Z,83.33
2024-02-03T17:46:08.596Z,83.44
2024-02-03T17:48:37.660Z,83.69
2024-02-03T17:51:06.286Z,83.77
2024-02-03T17:53:34.311Z,83.90
2024-02-03T17:56:04.394Z,83.95
2024-02-03T17:58:32.602Z,84.26
2024-02-03T18:01:00.916Z,84.31
2024-02-03T18:03:32.841Z,84.47
2024-02-03T18:06:01.503Z,84.43
2024-02-03T18:08:29.860Z,84.49
2024-02-03T18:10:57.902Z,84.69
2024-02-03T18:13:26.376Z,84.88
2024-02-03T18:15:54.715Z,85.01
2024-02-03T18:18:23.721Z,84.80
2024-02-03T18:20:51.980Z,84.77
2024-02-03T18:23:20.224Z,84.81
2024-02-03T18:25:48.716Z,84.63
2024-02-03T18:28:19.014Z,84.90
2024-02-03T18:30:47.280Z,84.89
2024-02-03T18:33:15.778Z,85.11
2024-02-03T18:35:43.862Z,84.94
2024-02-03T18:38:11.956Z,84.63
2024-02-03T18:40:40.211Z,84.60
2024-02-03T18:43:08.414Z,84.36
2024-02-03T18:45:36.586Z,83.91
2024-02-03T18:48:05.565Z,83.87
2024-02-03T18:50:33.723Z,83.40
2024-02-03T18:53:03.099Z,83.53
2024-02-03T18:55:34.106Z,83.22
2024-02-03T18:58:02.380Z,83.21
2024-02-03T19:00:31.886Z,82.67
2024-02-03T19:03:00.934Z,82.56
2024-02-03T19:05:30.696Z,82.27
2024-02-03T19:07:59.107Z,82.31
2024-02-03T19:10:27.326Z,82.44
2024-02-03T19:12:55.402Z,82.42
2024-02-03T19:15:23.956Z,82.31
2024-02-03T19:17:52.156Z,82.74
2024-02-03T19:20:21.665Z,82.51
2024-02-03T19:22:50.073Z,82.37
2024-02-03T19:25:18.605Z,82.46
2024-02-03T19:27:47.303Z,82.59
2024-02-03T19:30:17.296Z,82.91
2024-02-03T19:32:47.161Z,83.14
2024-02-03T19:35:16.072Z,83.30
2024-02-03T19:37:44.843Z,83.28
2024-02-03T19:40:13.526Z,83.28
2024-02-03T19:42:45.058Z,83.13
2024-02-03T19:45:13.152Z,83.25
2024-02-03T19:47:45.366Z,83.09
2024-02-03T19:50:13.749Z,83.06
2024-02-03T19:52:42.110Z,82.60
2024-02-03T19:55:12.853Z,82.86
2024-02-03T19:57:41.137Z,82.97
2024-02-03T20:00:11.487Z,83.05
2024-02-03T20:02:39.813Z,82.99
2024-02-03T20:05:08.744Z,82.83
2024-02-03T20:07:38.261Z,82.90
2024-02-03T20:10:08.206Z,83.24
2024-02-03T20:12:40.354Z,82.57
2024-02-03T20:15:08.882Z,82.15
2024-02-03T20:17:39.719Z,82.06
2024-02-03T20:20:08.461Z,81.98
2024-02-03T20:22:37.849Z,81.56
2024-02-03T20:25:06.537Z,81.47
2024-02-03T20:27:36.107Z,81.44
2024-02-03T20:30:05.245Z,81.24
2024-02-03T20:32:33.390Z,81.44
2024-02-03T20:35:02.256Z,81.41
2024-02-03T20:37:31.229Z,81.29
2024-02-03T20:39:59.394Z,81.74
2024-02-03T20:42:28.539Z,81.69
2024-02-03T20:44:56.607Z,81.99
2024-02-03T20:47:24.580Z,82.06
2024-02-03T20:49:52.771Z,82.14
2024-02-03T20:52:21.054Z,82.26
2024-02-03T20:54:49.928Z,82.48
2024-02-03T20:57:18.885Z,82.63
2024-02-03T20:59:47.015Z,82.75
2024-02-03T21:02:15.797Z,82.75
2024-02-03T21:04:43.909Z,82.71
2024-02-03T21:07:16.620Z,82.74
2024-02-03T21:09:44.919Z,82.99
2024-02-03T21:12:13.025Z,83.03
2024-02-03T21:14:41.488Z,83.29
2024-02-03T21:17:09.589Z,83.19
2024-02-03T21:19:38.734Z,83.16
2024-02-03T21:22:07.015Z,83.13
2024-02-03T21:24:36.570Z,82.82
2024-02-03T21:27:07.712Z,82.90
2024-02-03T21:29:35.730Z,82.92
2024-02-03T21:32:04.613Z,82.81
2024-02-03T21:34:32.776Z,82.92
2024-02-03T21:37:01.598Z,83.13
2024-02-03T21:39:29.812Z,83.14
2024-02-03T21:41:57.778Z,83.36
2024-02-03T21:44:25.775Z,83.39
2024-02-03T21:46:55.937Z,83.49
2024-02-03T21:49:25.288Z,83.45
2024-02-03T21:51:53.425Z,83.50
2024-02-03T21:54:21.904Z,83.68
2024-02-03T21:56:50.058Z,83.84
2024-02-03T21:59:18.252Z,83.83
2024-02-03T22:01:46.487Z,83.88
2024-02-03T22:04:18.082Z,84.00
2024-02-03T22:06:47.657Z,84.28
2024-02-03T22:09:18.282Z,84.11
2024-02-03T22:11:46.374Z,84.13
2024-02-03T22:14:14.424Z,84.18
2024-02-03T22:16:44.384Z,84.20
2024-02-03T22:19:12.811Z,84.17
2024-02-03T22:21:41.221Z,84.36
2024-02-03T22:24:09.349Z,84.32
2024-02-03T22:26:39.488Z,84.33
2024-02-03T22:29:08.012Z,84.52
2024-02-03T22:31:35.950Z,84.56
2024-02-03T22:34:04.015Z,84.78
2024-02-03T22:36:32.179Z,85.14
2024-02-03T22:39:00.157Z,85.28
2024-02-03T22:41:29.074Z,85.56
2024-02-03T22:43:57.409Z,85.63
2024-02-03T22:46:25.507Z,85.81
2024-02-03T22:48:53.852Z,85.88
2024-02-03T22:51:22.007Z,85.87
2024-02-03T22:53:50.040Z,86.05
2024-02-03T22:56:18.205Z,86.25
2024-02-03T22:58:46.558Z,86.40
2024-02-03T23:01:14.800Z,86.40
2024-02-03T23:03:46.283Z,86.56
2024-02-03T23:06:14.460Z,86.87
2024-02-03T23:08:43.414Z,86.87
2024-02-03T23:11:13.285Z,87.25
2024-02-03T23:13:42.340Z,87.33
2024-02-03T23:16:10.568Z,87.95
2024-02-03T23:18:39.868Z,87.75
2024-02-03T23:21:09.279Z,87.82
2024-02-03T23:23:37.440Z,87.90
2024-02-03T23:26:05.641Z,88.10
2024-02-03T23:28:35.228Z,88.29
2024-02-03T23:31:04.269Z,88.22
2024-02-03T23:33:37.220Z,88.13
2024-02-03T23:36:06.415Z,87.93
2024-02-03T23:38:34.872Z,87.76
2024-02-03T23:41:03.179Z,87.60
2024-02-03T23:43:31.239Z,87.44
2024-02-03T23:45:59.314Z,87.48
2024-02-03T23:48:28.024Z,87.35
2024-02-03T23:50:56.102Z,86.91
2024-02-03T23:53:26.265Z,87.10
2024-02-03T23:55:54.434Z,87.08
2024-02-03T23:58:23.470Z,87.08
